Time;durP1;ratioP1;P1;durP2;ratioP2;P2;SDS_P1;SDS_P2;PMS_P1;PMS_P2;Temp;Humidity;BMP_temperature;BMP_pressure;BME280_temperature;BME280_humidity;BME280_pressure;Samples;Min_cycle;Max_cycle;Signal;HPM_P1;HPM_P2
2022/10/22 00:02:21;;;;;;;15.77;7.10;;;12.00;99.90;;;;;;5159427;27;20039;-76
2022/10/22 00:04:48;;;;;;;12.53;6.87;;;12.00;99.90;;;;;;5159322;27;20061;-76
2022/10/22 00:07:16;;;;;;;13.40;6.35;;;11.90;99.90;;;;;;5159541;27;20095;-76
2022/10/22 00:09:41;;;;;;;10.35;7.15;;;11.90;99.90;;;;;;5159229;27;20217;-76
2022/10/22 00:12:07;;;;;;;12.90;7.20;;;11.90;99.90;;;;;;5159188;27;20125;-75
2022/10/22 00:14:33;;;;;;;38.05;8.98;;;11.80;99.90;;;;;;5159255;27;20386;-76
2022/10/22 00:16:59;;;;;;;10.23;6.55;;;11.80;99.90;;;;;;5159166;27;20502;-76
2022/10/22 00:19:26;;;;;;;12.48;7.78;;;11.80;99.90;;;;;;5159129;27;20039;-75
2022/10/22 00:21:52;;;;;;;12.35;7.80;;;11.70;99.90;;;;;;5159126;27;20039;-76
2022/10/22 00:24:17;;;;;;;15.77;8.07;;;12.00;99.90;;;;;;5158550;27;20111;-76
2022/10/22 00:26:43;;;;;;;12.07;7.53;;;12.00;99.90;;;;;;5157756;27;20042;-75
2022/10/22 00:29:09;;;;;;;33.75;9.05;;;11.60;99.90;;;;;;5158947;27;20078;-76
2022/10/22 00:31:34;;;;;;;10.20;6.73;;;11.50;99.90;;;;;;5157929;27;20127;-76
2022/10/22 00:34:01;;;;;;;14.25;7.70;;;11.50;99.90;;;;;;5159549;27;20458;-76
2022/10/22 00:36:26;;;;;;;16.88;7.75;;;11.50;99.90;;;;;;5158091;27;20046;-76
2022/10/22 00:38:52;;;;;;;14.57;7.70;;;11.80;99.90;;;;;;5158846;27;20047;-76
2022/10/22 00:41:18;;;;;;;12.60;6.88;;;11.40;99.90;;;;;;5158686;27;20488;-76
2022/10/22 00:44:00;;;;;;;11.87;7.47;;;11.40;99.90;;;;;;5158582;27;20046;-75
2022/10/22 00:46:25;;;;;;;14.32;7.72;;;11.90;99.90;;;;;;5158607;27;20292;-75
2022/10/22 00:48:53;;;;;;;11.10;7.18;;;11.30;99.90;;;;;;5158230;27;20068;-75
2022/10/22 00:51:24;;;;;;;12.68;7.60;;;11.30;99.90;;;;;;5158182;27;20524;-76
2022/10/22 00:53:54;;;;;;;10.82;7.13;;;11.30;99.90;;;;;;5158479;27;20043;-75
2022/10/22 00:56:21;;;;;;;10.98;7.43;;;11.20;99.90;;;;;;5158455;27;20447;-76
2022/10/22 00:58:54;;;;;;;16.00;7.07;;;11.20;99.90;;;;;;5157174;27;20049;-75
2022/10/22 01:01:29;;;;;;;12.98;7.60;;;11.20;99.90;;;;;;5158629;27;20051;-76
2022/10/22 01:03:55;;;;;;;16.90;8.80;;;11.60;99.90;;;;;;5158247;27;20091;-76
2022/10/22 01:06:27;;;;;;;14.25;8.65;;;11.10;99.90;;;;;;5158018;27;20042;-76
2022/10/22 01:09:13;;;;;;;15.02;8.43;;;11.10;99.90;;;;;;5157252;27;20126;-76
2022/10/22 01:11:44;;;;;;;14.02;7.85;;;11.10;99.90;;;;;;5158216;27;20050;-76
2022/10/22 01:14:18;;;;;;;37.38;10.60;;;11.50;99.90;;;;;;5158501;27;20047;-76
2022/10/22 01:16:59;;;;;;;12.15;8.38;;;11.10;99.90;;;;;;5157929;27;20051;-76
2022/10/22 01:19:40;;;;;;;12.68;8.40;;;11.10;99.90;;;;;;5157949;27;20051;-76
2022/10/22 01:22:31;;;;;;;16.40;8.00;;;11.10;99.90;;;;;;5158175;27;20130;-76
2022/10/22 01:25:04;;;;;;;13.73;8.15;;;11.10;99.90;;;;;;5157558;27;20050;-76
2022/10/22 01:27:44;;;;;;;14.70;8.00;;;11.10;99.90;;;;;;5158176;27;20543;-76
2022/10/22 01:30:12;;;;;;;16.27;8.23;;;11.00;99.90;;;;;;5158084;27;20046;-76
2022/10/22 01:32:47;;;;;;;13.57;8.15;;;11.00;99.90;;;;;;5157947;27;20057;-76
2022/10/22 01:35:17;;;;;;;13.30;8.10;;;10.90;99.90;;;;;;5157627;27;20043;-76
2022/10/22 01:37:50;;;;;;;15.02;7.68;;;10.90;99.90;;;;;;5157574;27;20039;-76
2022/10/22 01:40:16;;;;;;;13.65;7.95;;;10.90;99.90;;;;;;5157562;27;20095;-76
2022/10/22 01:42:42;;;;;;;19.17;8.23;;;10.90;99.90;;;;;;5157522;27;20394;-76
2022/10/22 01:45:13;;;;;;;16.40;7.90;;;10.90;99.90;;;;;;5157811;27;20368;-76
2022/10/22 01:47:55;;;;;;;14.27;8.32;;;10.90;99.90;;;;;;5157343;27;20031;-77
2022/10/22 01:50:49;;;;;;;17.23;8.70;;;10.90;99.90;;;;;;5157343;27;20046;-76
2022/10/22 01:53:40;;;;;;;12.98;8.02;;;10.90;99.90;;;;;;5152980;27;20046;-75
2022/10/22 01:56:30;;;;;;;33.85;9.18;;;10.90;99.90;;;;;;5157181;27;20126;-76
2022/10/22 01:59:13;;;;;;;10.32;7.93;;;10.90;99.90;;;;;;5157686;27;20046;-76
2022/10/22 02:01:55;;;;;;;12.82;7.75;;;10.90;99.90;;;;;;5157165;27;20095;-76
2022/10/22 02:04:41;;;;;;;12.80;7.47;;;10.90;99.90;;;;;;5155660;27;20414;-75
2022/10/22 02:07:12;;;;;;;16.80;8.27;;;10.90;99.90;;;;;;5157646;27;20046;-76
2022/10/22 02:09:39;;;;;;;16.85;7.80;;;10.90;99.90;;;;;;5157129;27;20050;-75
2022/10/22 02:12:07;;;;;;;17.00;8.55;;;10.90;99.90;;;;;;5157461;27;20053;-75
2022/10/22 02:14:38;;;;;;;15.57;7.82;;;10.90;99.90;;;;;;5156994;27;20144;-76
2022/10/22 02:17:07;;;;;;;13.43;8.52;;;11.10;99.90;;;;;;5157048;27;20079;-76
2022/10/22 02:19:47;;;;;;;13.00;8.15;;;10.90;99.90;;;;;;5156760;27;20043;-76
2022/10/22 02:22:12;;;;;;;13.85;7.72;;;11.00;99.90;;;;;;5157144;27;20047;-75
2022/10/22 02:24:38;;;;;;;12.55;7.88;;;11.00;99.90;;;;;;5156789;27;20051;-76
2022/10/22 02:27:17;;;;;;;13.02;7.55;;;11.10;99.90;;;;;;5156597;27;20039;-76
2022/10/22 02:30:07;;;;;;;11.57;7.80;;;11.00;99.90;;;;;;5156669;27;20049;-76
2022/10/22 02:32:49;;;;;;;14.68;7.68;;;11.00;99.90;;;;;;5156457;27;20056;-76
2022/10/22 02:35:19;;;;;;;31.45;8.10;;;11.00;99.90;;;;;;5156775;27;20398;-75
2022/10/22 02:37:45;;;;;;;11.70;6.65;;;10.90;99.90;;;;;;5156753;27;20042;-76
2022/10/22 02:40:11;;;;;;;18.03;7.80;;;11.00;99.90;;;;;;5156376;27;20045;-75
2022/10/22 02:42:39;;;;;;;15.90;7.82;;;11.00;99.90;;;;;;5156006;27;20055;-76
2022/10/22 02:45:05;;;;;;;14.65;7.85;;;11.00;99.90;;;;;;5155171;27;20039;-76
2022/10/22 02:47:31;;;;;;;13.67;7.60;;;11.00;99.90;;;;;;5156265;27;20103;-76
2022/10/22 02:49:56;;;;;;;12.15;7.70;;;11.00;99.90;;;;;;5156532;27;20462;-76
2022/10/22 02:52:22;;;;;;;18.33;7.57;;;11.10;99.90;;;;;;5156114;27;20038;-76
2022/10/22 02:54:47;;;;;;;16.17;8.48;;;11.30;99.90;;;;;;5156206;27;20069;-76
2022/10/22 02:57:13;;;;;;;12.20;7.40;;;11.10;99.90;;;;;;5154789;27;20402;-76
2022/10/22 02:59:39;;;;;;;12.73;7.38;;;11.00;99.90;;;;;;5154809;27;20050;-76
2022/10/22 03:02:04;;;;;;;13.57;8.15;;;11.00;99.90;;;;;;5155954;27;20424;-76
2022/10/22 03:04:30;;;;;;;12.68;7.70;;;11.00;99.90;;;;;;5155837;27;20130;-76
2022/10/22 03:06:55;;;;;;;14.70;8.00;;;11.00;99.90;;;;;;5155702;27;20042;-76
2022/10/22 03:09:21;;;;;;;12.68;7.20;;;11.00;99.90;;;;;;5155834;27;20046;-76
2022/10/22 03:11:46;;;;;;;11.65;7.35;;;11.00;99.90;;;;;;5155787;27;20047;-76
2022/10/22 03:14:12;;;;;;;11.55;7.25;;;11.30;99.90;;;;;;5155905;27;20043;-75
2022/10/22 03:16:38;;;;;;;12.57;7.55;;;10.90;99.90;;;;;;5155687;27;20538;-75
2022/10/22 03:19:03;;;;;;;82.10;11.68;;;10.90;99.90;;;;;;5155670;27;20129;-76
2022/10/22 03:21:37;;;;;;;14.38;7.60;;;10.80;99.90;;;;;;5155992;27;20053;-76
2022/10/22 03:24:08;;;;;;;19.80;8.23;;;10.90;99.90;;;;;;5156346;27;20062;-76
2022/10/22 03:26:36;;;;;;;13.98;8.18;;;10.90;99.90;;;;;;5155848;27;20038;-76
2022/10/22 03:29:02;;;;;;;16.70;8.13;;;10.80;99.90;;;;;;5155668;27;20050;-76
2022/10/22 03:31:27;;;;;;;15.43;8.05;;;10.80;99.90;;;;;;5155316;27;20095;-76
2022/10/22 03:33:53;;;;;;;14.95;8.45;;;10.70;99.90;;;;;;5155846;27;20126;-75
2022/10/22 03:36:18;;;;;;;91.05;10.82;;;10.80;99.90;;;;;;5155846;27;20432;-76
2022/10/22 03:38:44;;;;;;;42.45;9.10;;;11.10;99.90;;;;;;5155476;27;20166;-75
2022/10/22 03:41:10;;;;;;;34.42;8.35;;;10.70;99.90;;;;;;5155403;27;20047;-75
2022/10/22 03:43:38;;;;;;;16.23;8.63;;;10.70;99.90;;;;;;5155162;27;20050;-76
2022/10/22 03:46:04;;;;;;;51.72;10.05;;;10.70;99.90;;;;;;5155625;27;20042;-76
2022/10/22 03:48:29;;;;;;;119.13;13.07;;;10.70;99.90;;;;;;5154550;27;20490;-76
2022/10/22 03:50:55;;;;;;;20.00;9.05;;;10.70;99.90;;;;;;5155565;27;20039;-76
2022/10/22 03:53:20;;;;;;;411.75;28.20;;;10.70;99.90;;;;;;5155126;27;20545;-76
2022/10/22 03:55:46;;;;;;;25.85;8.60;;;10.90;99.90;;;;;;5155049;27;20046;-76
2022/10/22 03:58:12;;;;;;;21.65;8.73;;;10.60;99.90;;;;;;5154975;27;20035;-77
2022/10/22 04:00:37;;;;;;;16.52;9.05;;;10.60;99.90;;;;;;5155120;27;20099;-75
2022/10/22 04:03:03;;;;;;;19.13;9.68;;;10.50;99.90;;;;;;5154445;27;20046;-78
2022/10/22 04:05:29;;;;;;;19.50;9.15;;;10.50;99.90;;;;;;5155115;27;20034;-75
2022/10/22 04:07:54;;;;;;;18.08;9.40;;;10.60;99.90;;;;;;5155155;27;20031;-75
2022/10/22 04:10:20;;;;;;;16.00;8.75;;;10.60;99.90;;;;;;5155130;27;20039;-75
2022/10/22 04:12:48;;;;;;;109.60;14.60;;;10.60;99.90;;;;;;5155074;27;20043;-76
2022/10/22 04:15:14;;;;;;;42.25;9.48;;;10.60;99.90;;;;;;5155102;27;20038;-76
2022/10/22 04:17:40;;;;;;;25.23;9.63;;;10.50;99.90;;;;;;5155072;27;20050;-77
2022/10/22 04:20:06;;;;;;;392.17;25.10;;;10.50;99.90;;;;;;5155190;27;20099;-73
2022/10/22 04:22:35;;;;;;;50.00;10.07;;;10.50;99.90;;;;;;5155079;27;20039;-82
2022/10/22 04:25:02;;;;;;;247.68;20.70;;;10.40;99.90;;;;;;5155636;27;20050;-76
2022/10/22 04:27:32;;;;;;;181.48;16.83;;;10.40;99.90;;;;;;5155401;27;20049;-77
2022/10/22 04:29:58;;;;;;;636.83;45.55;;;10.30;99.90;;;;;;5155296;27;20039;-77
2022/10/22 04:32:27;;;;;;;293.92;24.65;;;10.30;99.90;;;;;;5154214;27;20109;-77
2022/10/22 04:34:52;;;;;;;240.18;17.70;;;10.30;99.90;;;;;;5134280;27;20062;-77
2022/10/22 04:37:18;;;;;;;13.60;7.45;;;10.20;99.90;;;;;;5132597;28;20047;-77
2022/10/22 04:39:43;;;;;;;84.40;12.02;;;10.20;99.90;;;;;;5133793;28;20055;-76
2022/10/22 04:42:09;;;;;;;188.50;17.75;;;10.20;99.90;;;;;;5134081;28;20058;-77
2022/10/22 04:44:35;;;;;;;135.88;14.50;;;10.30;99.90;;;;;;5134942;27;20046;-76
2022/10/22 04:47:00;;;;;;;91.47;11.85;;;10.30;99.90;;;;;;5138115;27;20043;-76
2022/10/22 04:49:26;;;;;;;63.83;12.55;;;10.30;99.90;;;;;;5136679;27;20061;-76
2022/10/22 04:51:52;;;;;;;626.42;36.22;;;10.30;99.90;;;;;;5137770;27;20117;-77
2022/10/22 04:54:18;;;;;;;374.15;26.90;;;10.30;99.90;;;;;;5137657;27;20047;-77
2022/10/22 04:56:43;;;;;;;215.23;20.35;;;10.30;99.90;;;;;;5138306;27;20047;-77
2022/10/22 04:59:11;;;;;;;329.50;24.63;;;10.20;99.90;;;;;;5137642;27;20043;-77
2022/10/22 05:01:42;;;;;;;57.92;11.82;;;10.20;99.90;;;;;;5137565;27;20138;-76
2022/10/22 05:04:10;;;;;;;57.03;11.98;;;10.10;99.90;;;;;;5137680;27;20079;-76
2022/10/22 05:06:36;;;;;;;20.25;9.30;;;10.10;99.90;;;;;;5137402;27;20043;-76
2022/10/22 05:09:10;;;;;;;59.13;11.32;;;10.10;99.90;;;;;;5137840;27;20497;-77
2022/10/22 05:11:40;;;;;;;122.63;15.20;;;10.50;99.90;;;;;;5137829;27;20055;-77
2022/10/22 05:14:06;;;;;;;143.10;15.18;;;10.00;99.90;;;;;;5137419;27;20084;-77
2022/10/22 05:16:33;;;;;;;100.93;12.00;;;10.00;99.90;;;;;;5137292;27;20066;-77
2022/10/22 05:19:00;;;;;;;15.02;8.98;;;10.00;99.90;;;;;;5137306;27;20051;-77
2022/10/22 05:21:26;;;;;;;29.83;10.35;;;10.20;99.90;;;;;;5137197;27;20085;-77
2022/10/22 05:23:53;;;;;;;60.42;11.95;;;9.90;99.90;;;;;;5137459;27;20051;-77
2022/10/22 05:26:20;;;;;;;169.15;16.80;;;10.00;99.90;;;;;;5137887;27;20070;-77
2022/10/22 05:28:49;;;;;;;;;;;10.00;99.90;;;;;;5137855;27;20043;-76
2022/10/22 05:31:16;;;;;;;21.13;8.55;;;9.90;99.90;;;;;;5137596;27;19920;-77
2022/10/22 05:33:42;;;;;;;18.73;8.80;;;9.90;99.90;;;;;;5137257;27;20124;-77
2022/10/22 05:36:11;;;;;;;36.35;9.57;;;9.90;99.90;;;;;;5137124;27;20043;-77
2022/10/22 05:38:37;;;;;;;18.15;10.10;;;9.80;99.90;;;;;;5136900;27;20047;-77
2022/10/22 05:41:06;;;;;;;98.35;13.80;;;10.10;99.90;;;;;;5136905;27;20133;-77
2022/10/22 05:43:32;;;;;;;177.95;16.52;;;10.40;99.90;;;;;;5136748;27;20104;-77
2022/10/22 05:46:06;;;;;;;29.52;10.20;;;9.90;99.90;;;;;;5136677;27;20467;-77
2022/10/22 05:48:32;;;;;;;36.95;11.48;;;9.90;99.90;;;;;;5136610;27;20043;-77
2022/10/22 05:51:05;;;;;;;21.53;10.20;;;9.80;99.90;;;;;;5136900;27;20495;-77
2022/10/22 05:53:32;;;;;;;79.90;12.88;;;9.90;99.90;;;;;;5136895;27;20050;-77
2022/10/22 05:56:03;;;;;;;34.17;10.98;;;9.90;99.90;;;;;;5136216;27;20113;-76
2022/10/22 05:58:29;;;;;;;16.42;10.27;;;9.80;99.90;;;;;;5136343;27;20043;-77
2022/10/22 06:01:11;;;;;;;21.90;10.33;;;9.80;99.90;;;;;;5136518;27;20395;-77
2022/10/22 06:03:37;;;;;;;65.57;12.50;;;9.80;99.90;;;;;;5136838;27;20043;-77
2022/10/22 06:06:32;;;;;;;96.70;12.85;;;9.80;99.90;;;;;;5136797;27;20446;-77
2022/10/22 06:09:11;;;;;;;29.25;10.93;;;9.80;99.90;;;;;;5130357;27;20130;-77
2022/10/22 06:11:36;;;;;;;54.85;11.60;;;9.80;99.90;;;;;;5136259;27;20398;-77
2022/10/22 06:14:03;;;;;;;16.40;9.73;;;9.90;99.90;;;;;;5136119;27;20039;-77
2022/10/22 06:16:30;;;;;;;24.05;11.30;;;9.90;99.90;;;;;;5136142;27;20040;-77
2022/10/22 06:18:57;;;;;;;33.92;10.77;;;9.90;99.90;;;;;;5136041;27;20076;-77
2022/10/22 06:21:23;;;;;;;18.52;10.55;;;9.90;99.90;;;;;;5136070;27;20126;-77
2022/10/22 06:23:48;;;;;;;22.40;10.57;;;10.00;99.90;;;;;;5135944;27;20086;-77
2022/10/22 06:26:16;;;;;;;23.10;10.90;;;10.00;99.90;;;;;;5135814;27;20044;-77
2022/10/22 06:28:42;;;;;;;18.48;10.85;;;10.00;99.90;;;;;;5135907;27;20089;-77
2022/10/22 06:31:08;;;;;;;23.00;11.48;;;10.10;99.90;;;;;;5134739;27;20074;-77
2022/10/22 06:33:40;;;;;;;25.80;11.70;;;10.10;99.90;;;;;;5135736;27;20122;-77
2022/10/22 06:36:10;;;;;;;19.80;11.65;;;10.30;99.90;;;;;;5135851;27;20043;-77
2022/10/22 06:38:35;;;;;;;21.95;11.32;;;10.20;99.90;;;;;;5135622;27;20054;-77
2022/10/22 06:41:20;;;;;;;20.70;11.02;;;10.30;99.90;;;;;;5135341;27;20047;-77
2022/10/22 06:43:46;;;;;;;18.52;10.45;;;10.30;99.90;;;;;;5135651;27;20482;-77
2022/10/22 06:46:15;;;;;;;19.13;11.73;;;10.40;99.90;;;;;;5135469;27;20099;-77
2022/10/22 06:48:41;;;;;;;24.55;12.07;;;10.50;99.90;;;;;;5135530;27;20050;-77
2022/10/22 06:51:09;;;;;;;21.70;10.82;;;10.60;99.90;;;;;;5135509;27;20118;-77
2022/10/22 06:53:35;;;;;;;19.23;10.82;;;10.70;99.90;;;;;;5134743;27;20053;-77
2022/10/22 06:56:09;;;;;;;23.63;11.57;;;10.90;99.90;;;;;;5135388;27;20092;-77
2022/10/22 06:58:35;;;;;;;15.38;10.27;;;10.70;99.90;;;;;;5135324;27;20312;-77
2022/10/22 07:01:06;;;;;;;14.20;9.25;;;10.80;99.90;;;;;;5135278;27;20432;-77
2022/10/22 07:03:32;;;;;;;19.73;10.48;;;10.90;99.90;;;;;;5135238;27;20060;-76
2022/10/22 07:06:02;;;;;;;19.95;10.45;;;11.10;99.90;;;;;;5134849;27;20530;-76
2022/10/22 07:08:28;;;;;;;16.55;10.30;;;11.50;99.90;;;;;;5135225;27;20098;-77
2022/10/22 07:10:55;;;;;;;27.15;10.20;;;11.30;99.90;;;;;;5135059;27;20047;-76
2022/10/22 07:13:21;;;;;;;15.80;10.55;;;11.40;99.90;;;;;;5135097;27;20501;-77
2022/10/22 07:15:54;;;;;;;24.00;10.63;;;11.50;99.90;;;;;;5135270;27;20054;-77
2022/10/22 07:18:21;;;;;;;19.13;10.88;;;11.60;99.90;;;;;;5134983;27;20043;-77
2022/10/22 07:20:47;;;;;;;23.88;11.13;;;12.10;99.90;;;;;;5135460;27;20363;-77
2022/10/22 07:23:13;;;;;;;14.25;9.68;;;11.90;99.90;;;;;;5134798;27;20047;-76
2022/10/22 07:25:40;;;;;;;20.83;10.75;;;12.00;99.90;;;;;;5134225;27;20054;-77
2022/10/22 07:28:05;;;;;;;;;;;12.10;99.90;;;;;;5135318;27;20126;-77
2022/10/22 07:30:31;;;;;;;20.60;10.77;;;12.20;99.90;;;;;;5134891;27;19965;-77
2022/10/22 07:32:57;;;;;;;21.83;10.82;;;12.30;99.90;;;;;;5134833;27;20043;-76
2022/10/22 07:35:22;;;;;;;18.60;10.50;;;12.40;99.90;;;;;;5133342;27;20043;-77
2022/10/22 07:37:48;;;;;;;17.50;9.77;;;12.60;99.90;;;;;;5134803;27;20376;-77
2022/10/22 07:40:13;;;;;;;19.95;10.25;;;12.70;99.90;;;;;;5134745;28;20368;-77
2022/10/22 07:42:39;;;;;;;22.83;11.85;;;12.90;99.90;;;;;;5134651;28;20070;-77
2022/10/22 07:45:05;;;;;;;25.48;10.90;;;13.00;99.90;;;;;;5134648;28;20104;-77
2022/10/22 07:47:31;;;;;;;20.53;9.97;;;13.10;99.90;;;;;;5134576;27;20111;-77
2022/10/22 07:49:56;;;;;;;17.90;10.77;;;13.10;99.90;;;;;;5134605;28;20031;-77
2022/10/22 07:52:22;;;;;;;21.65;10.23;;;13.30;99.90;;;;;;5134505;28;20047;-77
2022/10/22 07:54:47;;;;;;;17.07;9.10;;;13.40;99.90;;;;;;5134880;28;20126;-77
2022/10/22 07:57:13;;;;;;;17.65;9.63;;;13.40;99.90;;;;;;5134575;28;20479;-76
2022/10/22 07:59:38;;;;;;;24.50;9.38;;;13.50;99.90;;;;;;5134685;28;20122;-77
2022/10/22 08:02:04;;;;;;;13.32;8.55;;;13.50;99.90;;;;;;5134543;28;20046;-77
2022/10/22 08:04:29;;;;;;;18.92;8.43;;;13.60;99.90;;;;;;5133142;28;20557;-76
2022/10/22 08:06:55;;;;;;;12.10;7.75;;;13.70;99.90;;;;;;5134417;28;20122;-77
2022/10/22 08:09:21;;;;;;;15.25;7.68;;;13.70;99.90;;;;;;5134853;28;20471;-77
2022/10/22 08:11:46;;;;;;;12.82;7.20;;;13.70;99.90;;;;;;5134503;28;20039;-77
2022/10/22 08:14:12;;;;;;;16.10;6.93;;;13.70;99.90;;;;;;5134732;28;20043;-77
2022/10/22 08:16:38;;;;;;;15.05;7.63;;;13.70;99.90;;;;;;5134537;28;20123;-77
2022/10/22 08:19:04;;;;;;;15.80;7.22;;;13.70;99.90;;;;;;5137129;27;20394;-77
2022/10/22 08:21:29;;;;;;;15.27;6.57;;;13.70;99.90;;;;;;5138429;27;20059;-77
2022/10/22 08:23:55;;;;;;;11.80;6.97;;;13.70;99.90;;;;;;5138051;27;20054;-77
2022/10/22 08:26:20;;;;;;;18.95;7.32;;;13.70;99.90;;;;;;5138278;27;20063;-77
2022/10/22 08:28:46;;;;;;;14.38;6.93;;;13.70;99.90;;;;;;5138254;27;20402;-77
2022/10/22 08:31:12;;;;;;;12.35;6.70;;;13.80;99.90;;;;;;5138113;27;20046;-77
2022/10/22 08:33:38;;;;;;;12.00;6.23;;;13.80;99.90;;;;;;5138181;27;20142;-76
2022/10/22 08:36:04;;;;;;;12.70;6.38;;;13.80;99.90;;;;;;5138141;27;20047;-77
2022/10/22 08:38:34;;;;;;;12.20;7.03;;;13.80;99.90;;;;;;5138095;27;20051;-77
2022/10/22 08:41:08;;;;;;;17.88;7.35;;;13.80;99.90;;;;;;5138293;27;20568;-77
2022/10/22 08:44:00;;;;;;;14.23;6.93;;;13.90;99.90;;;;;;5138220;27;20050;-77
2022/10/22 08:46:46;;;;;;;12.25;7.30;;;13.90;99.90;;;;;;5137874;27;20547;-77
2022/10/22 08:49:20;;;;;;;17.08;6.70;;;13.90;99.90;;;;;;5138064;27;20081;-76
2022/10/22 08:51:46;;;;;;;16.08;7.47;;;14.00;99.90;;;;;;5136657;27;20050;-77
2022/10/22 08:54:37;;;;;;;14.33;6.53;;;14.30;99.90;;;;;;5137910;27;20043;-76
2022/10/22 08:57:20;;;;;;;14.18;6.72;;;14.20;99.90;;;;;;5138783;27;20049;-77
2022/10/22 08:59:50;;;;;;;14.23;6.95;;;14.30;99.90;;;;;;5138268;27;20051;-77
2022/10/22 09:02:34;;;;;;;15.07;6.55;;;14.40;99.90;;;;;;5137919;27;20047;-77
2022/10/22 09:05:09;;;;;;;12.07;6.15;;;14.50;99.90;;;;;;5137627;27;20043;-77
2022/10/22 09:07:42;;;;;;;13.82;5.97;;;14.50;99.90;;;;;;5138212;27;20042;-77
2022/10/22 09:10:10;;;;;;;20.15;6.28;;;14.60;99.90;;;;;;5137704;27;20383;-77
2022/10/22 09:12:36;;;;;;;13.48;6.55;;;14.70;99.90;;;;;;5137614;27;20043;-76
2022/10/22 09:15:01;;;;;;;11.73;5.27;;;14.70;99.90;;;;;;5137366;27;20079;-76
2022/10/22 09:18:18;;;;;;;12.77;5.75;;;14.80;99.90;;;;;;5137268;27;20039;-77
2022/10/22 09:20:46;;;;;;;15.43;6.10;;;14.90;99.90;;;;;;5094233;28;20079;-77
2022/10/22 09:23:26;;;;;;;14.73;6.05;;;14.90;99.90;;;;;;5133597;27;20100;-77
2022/10/22 09:25:52;;;;;;;19.05;5.43;;;15.00;99.90;;;;;;5136986;27;20052;-77
2022/10/22 09:28:18;;;;;;;9.75;5.28;;;15.00;99.90;;;;;;5137316;27;20395;-77
2022/10/22 09:30:44;;;;;;;13.67;5.33;;;15.10;99.90;;;;;;5136267;27;20050;-77
2022/10/22 09:33:14;;;;;;;10.77;5.50;;;15.10;99.90;;;;;;5137395;27;20398;-77
2022/10/22 09:35:44;;;;;;;11.68;5.13;;;15.20;99.90;;;;;;5137080;27;20046;-77
2022/10/22 09:38:13;;;;;;;15.07;5.43;;;15.30;99.90;;;;;;5136861;27;20403;-75
2022/10/22 09:40:47;;;;;;;13.05;5.47;;;15.20;99.90;;;;;;5136744;27;20039;-77
2022/10/22 09:43:13;;;;;;;9.70;5.25;;;15.50;99.90;;;;;;5137154;27;20047;-77
2022/10/22 09:45:40;;;;;;;12.63;5.45;;;15.40;99.90;;;;;;5136630;27;20510;-77
2022/10/22 09:48:13;;;;;;;13.07;5.38;;;15.40;99.90;;;;;;5136864;27;20046;-77
2022/10/22 09:50:47;;;;;;;11.52;5.03;;;15.40;99.90;;;;;;5136807;27;20111;-77
2022/10/22 09:53:21;;;;;;;11.98;4.85;;;15.40;99.90;;;;;;5136538;27;20440;-77
2022/10/22 09:55:52;;;;;;;14.55;5.03;;;15.40;99.90;;;;;;5137064;27;20376;-77
2022/10/22 09:58:18;;;;;;;11.75;4.30;;;15.40;99.90;;;;;;5136560;27;20386;-77
2022/10/22 10:00:56;;;;;;;9.27;4.82;;;15.40;99.90;;;;;;5136486;27;20062;-77
2022/10/22 10:03:25;;;;;;;7.82;4.53;;;15.40;99.90;;;;;;5135647;27;20063;-76
2022/10/22 10:05:54;;;;;;;13.57;5.13;;;15.40;99.90;;;;;;5136227;27;20079;-77
2022/10/22 10:08:19;;;;;;;14.27;4.75;;;15.40;99.90;;;;;;5136281;27;20529;-77
2022/10/22 10:10:52;;;;;;;13.53;4.80;;;15.40;99.90;;;;;;5136292;27;20075;-77
2022/10/22 10:13:44;;;;;;;10.05;4.30;;;15.40;99.90;;;;;;5136243;27;20502;-77
2022/10/22 10:16:32;;;;;;;9.88;4.55;;;15.40;99.90;;;;;;5135971;27;20416;-77
2022/10/22 10:19:15;;;;;;;15.93;4.53;;;15.40;99.90;;;;;;5136535;27;20039;-77
2022/10/22 10:21:48;;;;;;;12.50;4.50;;;15.40;99.90;;;;;;5136338;27;20514;-77
2022/10/22 10:24:33;;;;;;;10.68;4.05;;;15.30;99.90;;;;;;5135621;27;20528;-77
2022/10/22 10:27:28;;;;;;;13.90;5.10;;;15.30;99.90;;;;;;5136480;27;20107;-77
2022/10/22 10:30:04;;;;;;;16.15;4.65;;;15.20;99.90;;;;;;5133559;27;20493;-77
2022/10/22 10:32:38;;;;;;;13.73;5.00;;;15.20;99.90;;;;;;5136485;27;20479;-77
2022/10/22 10:35:19;;;;;;;14.45;5.28;;;15.20;99.90;;;;;;5135765;27;20047;-77
2022/10/22 10:38:22;;;;;;;11.80;4.22;;;15.30;99.90;;;;;;5136157;27;20046;-77
2022/10/22 10:40:50;;;;;;;12.57;4.70;;;15.30;99.90;;;;;;5135414;27;20047;-77
2022/10/22 10:43:33;;;;;;;9.95;4.50;;;15.20;99.90;;;;;;5134946;27;20043;-75
2022/10/22 10:46:37;;;;;;;7.05;4.20;;;15.20;99.90;;;;;;5135496;27;20158;-75
2022/10/22 10:49:09;;;;;;;12.18;4.90;;;15.30;99.90;;;;;;5135436;27;20126;-77
2022/10/22 10:51:58;;;;;;;11.77;4.85;;;15.30;99.90;;;;;;5135496;27;20126;-77
2022/10/22 10:54:34;;;;;;;11.13;4.80;;;15.40;99.90;;;;;;5135852;27;20039;-77
2022/10/22 10:57:08;;;;;;;11.57;4.45;;;15.40;99.90;;;;;;5136102;27;20059;-77
2022/10/22 11:00:01;;;;;;;12.05;4.80;;;15.40;99.90;;;;;;5135467;27;20097;-77
2022/10/22 11:02:47;;;;;;;12.07;4.47;;;15.40;99.90;;;;;;5135284;27;20139;-77
2022/10/22 11:05:30;;;;;;;8.90;4.35;;;15.50;99.90;;;;;;5135245;27;20074;-77
2022/10/22 11:08:33;;;;;;;17.02;4.78;;;15.60;99.90;;;;;;5135457;27;20046;-77
2022/10/22 11:11:06;;;;;;;10.55;4.80;;;15.60;99.90;;;;;;5113196;27;20414;-77
2022/10/22 11:13:52;;;;;;;13.70;4.93;;;15.60;99.90;;;;;;5135421;27;20049;-76
2022/10/22 11:16:22;;;;;;;12.95;4.68;;;15.60;99.90;;;;;;5135319;27;20130;-75
2022/10/22 11:19:02;;;;;;;10.45;4.78;;;15.50;99.90;;;;;;5134881;27;20039;-75
2022/10/22 11:21:35;;;;;;;9.38;4.72;;;15.50;99.90;;;;;;5134972;27;20042;-75
2022/10/22 11:24:20;;;;;;;9.00;4.68;;;15.50;99.90;;;;;;5135195;27;20062;-75
2022/10/22 11:27:08;;;;;;;12.15;4.80;;;15.50;99.90;;;;;;5134877;27;20064;-75
2022/10/22 11:29:41;;;;;;;14.35;4.75;;;15.30;99.90;;;;;;5134905;27;20039;-75
2022/10/22 11:32:15;;;;;;;10.20;5.13;;;15.30;99.90;;;;;;5134922;27;20039;-75
2022/10/22 11:34:48;;;;;;;11.93;5.03;;;15.40;99.90;;;;;;5134798;27;20068;-75
2022/10/22 11:37:15;;;;;;;8.90;4.85;;;15.50;99.90;;;;;;5133930;27;20055;-74
2022/10/22 11:40:15;;;;;;;12.98;5.20;;;15.40;99.90;;;;;;5134667;27;20046;-75
2022/10/22 11:42:53;;;;;;;10.80;5.15;;;15.50;99.90;;;;;;5134727;27;20047;-75
2022/10/22 11:45:27;;;;;;;13.98;5.20;;;15.50;99.90;;;;;;5134698;27;20394;-75
2022/10/22 11:48:07;;;;;;;15.63;5.88;;;15.50;99.90;;;;;;5134692;27;20035;-75
2022/10/22 11:50:51;;;;;;;9.27;5.55;;;15.50;99.90;;;;;;5135092;28;20047;-76
2022/10/22 11:53:17;;;;;;;12.55;5.55;;;15.60;99.90;;;;;;5136381;27;20092;-77
2022/10/22 11:55:49;;;;;;;10.03;5.80;;;15.60;99.90;;;;;;5139136;27;20082;-77
2022/10/22 11:58:27;;;;;;;11.80;5.80;;;15.60;99.90;;;;;;5139004;27;20050;-77
2022/10/22 12:00:53;;;;;;;13.05;6.05;;;15.60;99.90;;;;;;5137517;27;20046;-77
2022/10/22 12:03:31;;;;;;;11.13;5.53;;;15.60;99.90;;;;;;5138734;27;20050;-76
2022/10/22 12:06:13;;;;;;;11.73;5.57;;;15.50;99.90;;;;;;5138861;27;20047;-77
2022/10/22 12:08:48;;;;;;;11.38;5.30;;;15.60;99.90;;;;;;5138706;27;20043;-77
2022/10/22 12:11:35;;;;;;;13.00;5.45;;;15.60;99.90;;;;;;5138608;27;20043;-77
2022/10/22 12:14:20;;;;;;;11.30;6.00;;;15.70;99.90;;;;;;5137963;27;20427;-77
2022/10/22 12:16:50;;;;;;;11.20;5.93;;;15.80;99.90;;;;;;5138877;27;20437;-76
2022/10/22 12:19:25;;;;;;;10.45;5.80;;;15.90;99.90;;;;;;5138583;27;20039;-77
2022/10/22 12:21:58;;;;;;;17.02;5.63;;;16.00;99.90;;;;;;5138483;27;20394;-77
2022/10/22 12:24:28;;;;;;;16.15;5.53;;;16.20;99.90;;;;;;5138589;27;20051;-77
2022/10/22 12:26:53;;;;;;;10.75;4.95;;;16.30;99.90;;;;;;5138279;27;20092;-76
2022/10/22 12:29:25;;;;;;;12.87;5.27;;;16.40;99.90;;;;;;5138241;27;20047;-77
2022/10/22 12:31:51;;;;;;;10.70;4.85;;;16.50;99.90;;;;;;5138306;27;20051;-77
2022/10/22 12:34:21;;;;;;;10.35;5.00;;;16.60;99.90;;;;;;5138103;27;20090;-74
2022/10/22 12:36:49;;;;;;;9.50;4.35;;;16.60;99.90;;;;;;5138303;27;20391;-75
2022/10/22 12:39:18;;;;;;;10.88;4.63;;;16.70;99.90;;;;;;5138450;27;20406;-75
2022/10/22 12:41:44;;;;;;;11.10;3.88;;;16.70;99.90;;;;;;5138057;27;20054;-75
2022/10/22 12:44:15;;;;;;;11.83;4.27;;;16.70;99.90;;;;;;5137994;27;20039;-75
2022/10/22 12:46:42;;;;;;;8.30;3.92;;;16.90;99.90;;;;;;5137967;27;20072;-74
2022/10/22 12:49:15;;;;;;;8.75;4.30;;;16.90;99.90;;;;;;5137900;27;20044;-75
2022/10/22 12:51:42;;;;;;;8.55;3.33;;;16.80;99.90;;;;;;5138239;27;20039;-74
2022/10/22 12:54:23;;;;;;;16.58;4.65;;;16.80;99.90;;;;;;5138060;27;20050;-75
2022/10/22 12:56:51;;;;;;;10.15;4.03;;;16.70;99.90;;;;;;5137873;27;20061;-75